sensor_id;sensor_type;location;lat;lon;timestamp;pressure;altitude;pressure_sealevel;temperature;humidity
68301;BME280;55146;47.468;18.806;2023-02-16T00:01:29;101428.38;;;-0.92;82.66
68301;BME280;55146;47.468;18.806;2023-02-16T00:03:55;101425.19;;;-0.88;82.62
68301;BME280;55146;47.468;18.806;2023-02-16T00:06:22;101419.75;;;-0.96;82.89
68301;BME280;55146;47.468;18.806;2023-02-16T00:08:50;101419.59;;;-0.94;82.89
68301;BME280;55146;47.468;18.806;2023-02-16T00:14:01;101422.97;;;-0.92;82.51
68301;BME280;55146;47.468;18.806;2023-02-16T00:16:27;101415.22;;;-0.87;82.09
68301;BME280;55146;47.468;18.806;2023-02-16T00:18:52;101415.38;;;-0.89;81.82
68301;BME280;55146;47.468;18.806;2023-02-16T00:21:18;101414.84;;;-0.92;81.77
68301;BME280;55146;47.468;18.806;2023-02-16T00:23:44;101413.84;;;-0.91;81.73
68301;BME280;55146;47.468;18.806;2023-02-16T00:26:17;101414.03;;;-0.93;81.92
68301;BME280;55146;47.468;18.806;2023-02-16T00:28:43;101409.66;;;-0.94;81.94
68301;BME280;55146;47.468;18.806;2023-02-16T00:31:17;101406.94;;;-0.94;81.59
68301;BME280;55146;47.468;18.806;2023-02-16T00:33:43;101412.50;;;-0.95;81.85
68301;BME280;55146;47.468;18.806;2023-02-16T00:36:09;101406.09;;;-0.94;81.79
68301;BME280;55146;47.468;18.806;2023-02-16T00:38:34;101413.34;;;-0.95;81.68
68301;BME280;55146;47.468;18.806;2023-02-16T00:41:00;101407.97;;;-0.95;81.55
68301;BME280;55146;47.468;18.806;2023-02-16T00:43:27;101405.59;;;-1.06;81.71
68301;BME280;55146;47.468;18.806;2023-02-16T00:45:54;101412.47;;;-1.19;81.68
68301;BME280;55146;47.468;18.806;2023-02-16T00:48:21;101403.84;;;-1.23;81.91
68301;BME280;55146;47.468;18.806;2023-02-16T00:50:46;101398.12;;;-1.20;82.02
68301;BME280;55146;47.468;18.806;2023-02-16T00:53:12;101405.53;;;-1.22;82.11
68301;BME280;55146;47.468;18.806;2023-02-16T00:55:39;101403.50;;;-1.28;82.04
68301;BME280;55146;47.468;18.806;2023-02-16T01:00:48;101395.09;;;-1.25;81.73
68301;BME280;55146;47.468;18.806;2023-02-16T01:03:18;101392.03;;;-1.22;81.69
68301;BME280;55146;47.468;18.806;2023-02-16T01:05:45;101392.72;;;-1.20;81.63
68301;BME280;55146;47.468;18.806;2023-02-16T01:08:13;101390.88;;;-1.19;81.75
68301;BME280;55146;47.468;18.806;2023-02-16T01:11:00;101392.06;;;-1.14;81.82
68301;BME280;55146;47.468;18.806;2023-02-16T01:13:45;101389.03;;;-1.11;81.72
68301;BME280;55146;47.468;18.806;2023-02-16T01:18:48;101380.59;;;-1.08;81.25
68301;BME280;55146;47.468;18.806;2023-02-16T01:21:13;101382.63;;;-1.10;81.06
68301;BME280;55146;47.468;18.806;2023-02-16T01:23:39;101385.31;;;-1.18;81.00
68301;BME280;55146;47.468;18.806;2023-02-16T01:26:09;101381.59;;;-1.17;81.19
68301;BME280;55146;47.468;18.806;2023-02-16T01:28:36;101381.78;;;-1.18;81.16
68301;BME280;55146;47.468;18.806;2023-02-16T01:31:01;101382.75;;;-1.28;81.30
68301;BME280;55146;47.468;18.806;2023-02-16T01:33:27;101382.91;;;-1.29;81.35
68301;BME280;55146;47.468;18.806;2023-02-16T01:35:54;101382.09;;;-1.30;81.42
68301;BME280;55146;47.468;18.806;2023-02-16T01:38:22;101372.13;;;-1.29;81.68
68301;BME280;55146;47.468;18.806;2023-02-16T01:40:59;101380.06;;;-1.28;81.53
68301;BME280;55146;47.468;18.806;2023-02-16T01:43:34;101374.47;;;-1.34;81.20
68301;BME280;55146;47.468;18.806;2023-02-16T01:46:19;101366.03;;;-1.39;81.39
68301;BME280;55146;47.468;18.806;2023-02-16T01:48:47;101382.87;;;-1.45;81.72
68301;BME280;55146;47.468;18.806;2023-02-16T01:51:49;101383.91;;;-1.46;81.84
68301;BME280;55146;47.468;18.806;2023-02-16T01:54:33;101371.25;;;-1.46;81.79
68301;BME280;55146;47.468;18.806;2023-02-16T01:57:10;101377.31;;;-1.52;81.79
68301;BME280;55146;47.468;18.806;2023-02-16T02:02:19;101368.56;;;-1.46;81.50
68301;BME280;55146;47.468;18.806;2023-02-16T02:04:49;101367.72;;;-1.54;81.24
68301;BME280;55146;47.468;18.806;2023-02-16T02:07:45;101363.81;;;-1.52;81.04
68301;BME280;55146;47.468;18.806;2023-02-16T02:10:20;101362.78;;;-1.59;81.06
68301;BME280;55146;47.468;18.806;2023-02-16T02:12:50;101366.63;;;-1.70;81.14
68301;BME280;55146;47.468;18.806;2023-02-16T02:15:21;101352.66;;;-1.73;81.32
68301;BME280;55146;47.468;18.806;2023-02-16T02:17:48;101353.13;;;-1.78;81.58
68301;BME280;55146;47.468;18.806;2023-02-16T02:39:04;101341.28;;;-1.85;81.21
68301;BME280;55146;47.468;18.806;2023-02-16T02:41:36;101343.53;;;-1.80;80.98
68301;BME280;55146;47.468;18.806;2023-02-16T02:44:23;101343.47;;;-1.88;81.39
68301;BME280;55146;47.468;18.806;2023-02-16T02:46:51;101349.22;;;-1.83;81.36
68301;BME280;55146;47.468;18.806;2023-02-16T02:49:16;101338.94;;;-1.88;81.73
68301;BME280;55146;47.468;18.806;2023-02-16T02:51:42;101342.44;;;-1.95;81.89
68301;BME280;55146;47.468;18.806;2023-02-16T02:57:18;101331.72;;;-2.21;82.47
68301;BME280;55146;47.468;18.806;2023-02-16T03:02:55;101328.84;;;-2.20;82.67
68301;BME280;55146;47.468;18.806;2023-02-16T03:05:21;101332.34;;;-2.27;82.51
68301;BME280;55146;47.468;18.806;2023-02-16T03:07:48;101326.81;;;-2.26;82.46
68301;BME280;55146;47.468;18.806;2023-02-16T03:10:18;101336.09;;;-2.20;82.64
68301;BME280;55146;47.468;18.806;2023-02-16T03:13:07;101332.56;;;-2.21;82.63
68301;BME280;55146;47.468;18.806;2023-02-16T03:15:35;101331.91;;;-2.23;82.37
68301;BME280;55146;47.468;18.806;2023-02-16T03:18:02;101326.16;;;-2.20;82.58
68301;BME280;55146;47.468;18.806;2023-02-16T03:20:47;101334.09;;;-2.18;82.62
68301;BME280;55146;47.468;18.806;2023-02-16T03:23:32;101326.16;;;-2.20;82.41
68301;BME280;55146;47.468;18.806;2023-02-16T03:26:17;101321.91;;;-2.30;82.52
68301;BME280;55146;47.468;18.806;2023-02-16T03:29:04;101325.97;;;-2.26;82.65
68301;BME280;55146;47.468;18.806;2023-02-16T03:31:47;101325.13;;;-2.27;82.50
68301;BME280;55146;47.468;18.806;2023-02-16T03:34:14;101320.72;;;-2.28;82.73
68301;BME280;55146;47.468;18.806;2023-02-16T03:36:43;101316.38;;;-2.29;82.79
68301;BME280;55146;47.468;18.806;2023-02-16T03:39:10;101313.97;;;-2.32;82.83
68301;BME280;55146;47.468;18.806;2023-02-16T03:41:41;101324.41;;;-2.37;82.69
68301;BME280;55146;47.468;18.806;2023-02-16T03:44:08;101324.69;;;-2.40;82.71
68301;BME280;55146;47.468;18.806;2023-02-16T03:46:33;101323.91;;;-2.32;82.87
68301;BME280;55146;47.468;18.806;2023-02-16T03:48:58;101327.97;;;-2.28;83.22
68301;BME280;55146;47.468;18.806;2023-02-16T03:51:24;101323.06;;;-2.33;83.77
68301;BME280;55146;47.468;18.806;2023-02-16T03:53:49;101326.31;;;-2.29;83.90
68301;BME280;55146;47.468;18.806;2023-02-16T03:56:15;101325.44;;;-2.30;83.95
68301;BME280;55146;47.468;18.806;2023-02-16T03:58:40;101324.50;;;-2.47;84.85
68301;BME280;55146;47.468;18.806;2023-02-16T04:01:06;101318.25;;;-2.55;85.50
68301;BME280;55146;47.468;18.806;2023-02-16T04:03:31;101321.78;;;-2.55;85.43
68301;BME280;55146;47.468;18.806;2023-02-16T04:05:57;101321.09;;;-2.57;86.10
68301;BME280;55146;47.468;18.806;2023-02-16T04:08:22;101319.44;;;-2.50;85.97
68301;BME280;55146;47.468;18.806;2023-02-16T04:10:48;101321.81;;;-2.47;85.89
68301;BME280;55146;47.468;18.806;2023-02-16T04:13:13;101320.50;;;-2.42;85.56
68301;BME280;55146;47.468;18.806;2023-02-16T04:15:38;101327.25;;;-2.38;84.94
68301;BME280;55146;47.468;18.806;2023-02-16T04:18:05;101317.31;;;-2.38;84.58
68301;BME280;55146;47.468;18.806;2023-02-16T04:20:32;101320.34;;;-2.41;84.45
68301;BME280;55146;47.468;18.806;2023-02-16T04:22:58;101319.66;;;-2.43;84.44
68301;BME280;55146;47.468;18.806;2023-02-16T04:25:24;101323.19;;;-2.42;84.32
68301;BME280;55146;47.468;18.806;2023-02-16T04:27:50;101330.78;;;-2.38;83.96
68301;BME280;55146;47.468;18.806;2023-02-16T04:30:18;101322.00;;;-2.40;83.19
68301;BME280;55146;47.468;18.806;2023-02-16T04:32:44;101322.84;;;-2.39;82.66
68301;BME280;55146;47.468;18.806;2023-02-16T04:35:10;101326.72;;;-2.42;82.21
68301;BME280;55146;47.468;18.806;2023-02-16T04:37:35;101330.78;;;-2.38;82.01
68301;BME280;55146;47.468;18.806;2023-02-16T04:40:02;101326.72;;;-2.42;81.56
68301;BME280;55146;47.468;18.806;2023-02-16T04:42:27;101318.97;;;-2.45;81.24
68301;BME280;55146;47.468;18.806;2023-02-16T04:44:53;101328.37;;;-2.49;81.27
68301;BME280;55146;47.468;18.806;2023-02-16T04:47:18;101320.72;;;-2.62;81.57
68301;BME280;55146;47.468;18.806;2023-02-16T04:49:44;101326.59;;;-2.66;81.75
68301;BME280;55146;47.468;18.806;2023-02-16T04:52:11;101330.44;;;-2.69;81.90
68301;BME280;55146;47.468;18.806;2023-02-16T04:54:37;101329.59;;;-2.69;81.79
68301;BME280;55146;47.468;18.806;2023-02-16T04:57:02;101331.91;;;-2.74;81.89
68301;BME280;55146;47.468;18.806;2023-02-16T04:59:28;101333.53;;;-2.81;81.92
68301;BME280;55146;47.468;18.806;2023-02-16T05:01:53;101328.53;;;-2.76;82.00
68301;BME280;55146;47.468;18.806;2023-02-16T05:04:19;101316.69;;;-2.83;82.00
68301;BME280;55146;47.468;18.806;2023-02-16T05:06:44;101313.19;;;-2.84;82.34
68301;BME280;55146;47.468;18.806;2023-02-16T05:09:10;101326.16;;;-2.79;82.40
68301;BME280;55146;47.468;18.806;2023-02-16T05:11:35;101327.16;;;-2.80;82.30
68301;BME280;55146;47.468;18.806;2023-02-16T05:14:22;101323.84;;;-2.74;82.28
68301;BME280;55146;47.468;18.806;2023-02-16T05:17:06;101324.31;;;-2.79;81.85
68301;BME280;55146;47.468;18.806;2023-02-16T05:19:32;101319.22;;;-2.82;81.71
68301;BME280;55146;47.468;18.806;2023-02-16T05:21:58;101322.25;;;-2.85;81.72
68301;BME280;55146;47.468;18.806;2023-02-16T05:24:23;101309.78;;;-2.86;81.63
68301;BME280;55146;47.468;18.806;2023-02-16T05:26:48;101313.34;;;-2.86;81.42
68301;BME280;55146;47.468;18.806;2023-02-16T05:29:14;101311.13;;;-2.90;81.44
68301;BME280;55146;47.468;18.806;2023-02-16T05:31:39;101305.66;;;-2.98;81.50
68301;BME280;55146;47.468;18.806;2023-02-16T05:34:04;101318.06;;;-3.05;82.02
68301;BME280;55146;47.468;18.806;2023-02-16T05:36:30;101310.19;;;-2.99;82.11
68301;BME280;55146;47.468;18.806;2023-02-16T05:38:55;101304.91;;;-3.08;82.58
68301;BME280;55146;47.468;18.806;2023-02-16T05:41:21;101301.44;;;-3.01;82.72
68301;BME280;55146;47.468;18.806;2023-02-16T05:43:59;101310.06;;;-2.97;82.83
68301;BME280;55146;47.468;18.806;2023-02-16T05:46:27;101319.34;;;-2.92;82.84
68301;BME280;55146;47.468;18.806;2023-02-16T05:48:53;101311.06;;;-2.98;83.24
68301;BME280;55146;47.468;18.806;2023-02-16T05:51:19;101312.56;;;-2.96;83.56
68301;BME280;55146;47.468;18.806;2023-02-16T05:53:45;101308.34;;;-2.98;83.55
68301;BME280;55146;47.468;18.806;2023-02-16T05:56:11;101309.28;;;-3.07;84.22
68301;BME280;55146;47.468;18.806;2023-02-16T05:58:36;101308.63;;;-3.09;84.47
68301;BME280;55146;47.468;18.806;2023-02-16T06:01:02;101311.34;;;-3.01;84.64
68301;BME280;55146;47.468;18.806;2023-02-16T06:03:27;101304.97;;;-3.00;84.78
68301;BME280;55146;47.468;18.806;2023-02-16T06:05:54;101299.44;;;-2.99;84.74
68301;BME280;55146;47.468;18.806;2023-02-16T06:08:20;101305.97;;;-3.01;84.78
68301;BME280;55146;47.468;18.806;2023-02-16T06:10:48;101303.12;;;-3.00;84.92
68301;BME280;55146;47.468;18.806;2023-02-16T06:13:14;101303.97;;;-2.99;84.93
68301;BME280;55146;47.468;18.806;2023-02-16T06:15:39;101306.34;;;-2.96;85.26
68301;BME280;55146;47.468;18.806;2023-02-16T06:18:05;101306.53;;;-2.98;85.40
68301;BME280;55146;47.468;18.806;2023-02-16T06:20:30;101309.00;;;-3.04;85.83
68301;BME280;55146;47.468;18.806;2023-02-16T06:22:55;101301.91;;;-3.05;85.60
68301;BME280;55146;47.468;18.806;2023-02-16T06:25:21;101310.28;;;-3.08;85.89
68301;BME280;55146;47.468;18.806;2023-02-16T06:27:46;101310.22;;;-3.16;85.96
68301;BME280;55146;47.468;18.806;2023-02-16T06:30:12;101312.59;;;-3.13;86.42
68301;BME280;55146;47.468;18.806;2023-02-16T06:32:37;101320.00;;;-3.15;86.77
68301;BME280;55146;47.468;18.806;2023-02-16T06:35:03;101310.34;;;-3.00;86.90
68301;BME280;55146;47.468;18.806;2023-02-16T06:37:29;101307.38;;;-2.97;87.24
68301;BME280;55146;47.468;18.806;2023-02-16T06:39:54;101310.44;;;-2.92;87.18
68301;BME280;55146;47.468;18.806;2023-02-16T06:42:19;101308.09;;;-2.87;87.07
68301;BME280;55146;47.468;18.806;2023-02-16T06:44:45;101304.78;;;-2.81;86.82
68301;BME280;55146;47.468;18.806;2023-02-16T06:47:10;101304.94;;;-2.82;86.35
68301;BME280;55146;47.468;18.806;2023-02-16T06:49:36;101300.75;;;-2.77;86.35
68301;BME280;55146;47.468;18.806;2023-02-16T06:52:01;101301.56;;;-2.84;85.78
68301;BME280;55146;47.468;18.806;2023-02-16T06:54:27;101307.09;;;-2.86;86.40
68301;BME280;55146;47.468;18.806;2023-02-16T06:56:52;101304.87;;;-2.91;87.25
68301;BME280;55146;47.468;18.806;2023-02-16T06:59:17;101302.22;;;-2.82;86.87
68301;BME280;55146;47.468;18.806;2023-02-16T07:01:43;101295.22;;;-2.75;87.17
68301;BME280;55146;47.468;18.806;2023-02-16T07:04:08;101296.34;;;-2.60;86.92
68301;BME280;55146;47.468;18.806;2023-02-16T07:06:35;101288.03;;;-2.41;86.75
68301;BME280;55146;47.468;18.806;2023-02-16T07:09:00;101285.19;;;-2.31;85.78
68301;BME280;55146;47.468;18.806;2023-02-16T07:11:26;101289.97;;;-2.17;85.03
68301;BME280;55146;47.468;18.806;2023-02-16T07:13:51;101283.47;;;-1.98;84.52
68301;BME280;55146;47.468;18.806;2023-02-16T07:16:17;101296.00;;;-1.73;83.67
68301;BME280;55146;47.468;18.806;2023-02-16T07:18:42;101294.37;;;-1.50;83.15
68301;BME280;55146;47.468;18.806;2023-02-16T07:21:08;101303.16;;;-1.32;82.85
68301;BME280;55146;47.468;18.806;2023-02-16T07:23:33;101299.28;;;-1.13;82.31
68301;BME280;55146;47.468;18.806;2023-02-16T07:25:59;101295.75;;;-1.05;81.52
68301;BME280;55146;47.468;18.806;2023-02-16T07:28:24;101297.25;;;-0.87;81.16
68301;BME280;55146;47.468;18.806;2023-02-16T07:30:50;101290.44;;;-0.58;79.58
68301;BME280;55146;47.468;18.806;2023-02-16T07:33:16;101294.91;;;-0.34;78.98
68301;BME280;55146;47.468;18.806;2023-02-16T07:35:42;101292.50;;;-0.13;78.46
68301;BME280;55146;47.468;18.806;2023-02-16T07:38:08;101301.19;;;0.05;78.02
68301;BME280;55146;47.468;18.806;2023-02-16T07:40:33;101288.38;;;0.30;77.17
68301;BME280;55146;47.468;18.806;2023-02-16T07:43:01;101292.41;;;0.57;76.46
68301;BME280;55146;47.468;18.806;2023-02-16T07:45:27;101292.72;;;0.62;77.04
68301;BME280;55146;47.468;18.806;2023-02-16T07:47:52;101290.75;;;0.78;76.78
68301;BME280;55146;47.468;18.806;2023-02-16T07:50:17;101288.50;;;1.05;75.88
68301;BME280;55146;47.468;18.806;2023-02-16T07:52:43;101292.53;;;1.23;75.12
68301;BME280;55146;47.468;18.806;2023-02-16T07:55:09;101293.69;;;1.44;74.69
68301;BME280;55146;47.468;18.806;2023-02-16T07:57:37;101285.66;;;1.65;74.29
68301;BME280;55146;47.468;18.806;2023-02-16T08:00:03;101286.22;;;1.90;73.06
68301;BME280;55146;47.468;18.806;2023-02-16T08:02:29;101288.00;;;1.97;73.45
68301;BME280;55146;47.468;18.806;2023-02-16T08:04:54;101287.50;;;2.09;72.18
68301;BME280;55146;47.468;18.806;2023-02-16T08:07:20;101290.56;;;2.20;71.79
68301;BME280;55146;47.468;18.806;2023-02-16T08:09:46;101288.56;;;2.29;71.63
68301;BME280;55146;47.468;18.806;2023-02-16T08:12:13;101293.12;;;2.43;70.88
68301;BME280;55146;47.468;18.806;2023-02-16T08:14:39;101290.47;;;2.50;70.74
68301;BME280;55146;47.468;18.806;2023-02-16T08:17:06;101291.59;;;2.55;71.32
68301;BME280;55146;47.468;18.806;2023-02-16T08:19:32;101290.63;;;2.63;71.20
68301;BME280;55146;47.468;18.806;2023-02-16T08:21:59;101292.81;;;2.74;71.40
68301;BME280;55146;47.468;18.806;2023-02-16T08:24:27;101293.47;;;2.76;71.79
68301;BME280;55146;47.468;18.806;2023-02-16T08:26:53;101289.84;;;2.90;71.08
68301;BME280;55146;47.468;18.806;2023-02-16T08:29:21;101293.22;;;2.92;72.22
68301;BME280;55146;47.468;18.806;2023-02-16T08:31:46;101286.81;;;3.00;72.90
68301;BME280;55146;47.468;18.806;2023-02-16T08:34:17;101287.34;;;3.16;72.82
68301;BME280;55146;47.468;18.806;2023-02-16T08:36:45;101296.59;;;3.22;73.32
68301;BME280;55146;47.468;18.806;2023-02-16T08:39:14;101294.50;;;3.45;72.76
68301;BME280;55146;47.468;18.806;2023-02-16T08:41:41;101291.41;;;3.55;72.29
68301;BME280;55146;47.468;18.806;2023-02-16T08:44:08;101286.22;;;3.60;72.89
68301;BME280;55146;47.468;18.806;2023-02-16T08:46:35;101285.41;;;3.66;73.20
68301;BME280;55146;47.468;18.806;2023-02-16T08:49:03;101285.50;;;3.79;73.56
68301;BME280;55146;47.468;18.806;2023-02-16T08:51:32;101280.97;;;3.93;73.38
68301;BME280;55146;47.468;18.806;2023-02-16T08:53:59;101291.28;;;4.04;74.75
68301;BME280;55146;47.468;18.806;2023-02-16T08:56:27;101291.97;;;4.13;72.96
68301;BME280;55146;47.468;18.806;2023-02-16T08:58:54;101279.19;;;4.20;73.96
68301;BME280;55146;47.468;18.806;2023-02-16T09:01:19;101283.19;;;4.24;75.07
68301;BME280;55146;47.468;18.806;2023-02-16T09:03:45;101281.37;;;4.44;73.03
68301;BME280;55146;47.468;18.806;2023-02-16T09:06:12;101282.69;;;4.61;74.49
68301;BME280;55146;47.468;18.806;2023-02-16T09:08:39;101286.25;;;4.81;74.56
68301;BME280;55146;47.468;18.806;2023-02-16T09:11:07;101284.22;;;5.03;73.83
68301;BME280;55146;47.468;18.806;2023-02-16T09:13:34;101281.69;;;5.21;73.16
68301;BME280;55146;47.468;18.806;2023-02-16T09:16:04;101283.12;;;5.37;74.04
68301;BME280;55146;47.468;18.806;2023-02-16T09:18:30;101285.03;;;5.50;74.13
68301;BME280;55146;47.468;18.806;2023-02-16T09:20:57;101278.47;;;5.77;73.58
68301;BME280;55146;47.468;18.806;2023-02-16T09:23:26;101279.91;;;5.93;72.88
68301;BME280;55146;47.468;18.806;2023-02-16T09:25:52;101281.13;;;6.17;72.46
68301;BME280;55146;47.468;18.806;2023-02-16T09:28:17;101282.09;;;6.35;71.65
68301;BME280;55146;47.468;18.806;2023-02-16T09:30:43;101274.00;;;6.54;71.25
68301;BME280;55146;47.468;18.806;2023-02-16T09:33:08;101283.16;;;6.72;70.77
68301;BME280;55146;47.468;18.806;2023-02-16T09:35:37;101281.56;;;6.89;71.05
68301;BME280;55146;47.468;18.806;2023-02-16T09:38:03;101283.53;;;7.07;70.51
68301;BME280;55146;47.468;18.806;2023-02-16T09:40:28;101280.91;;;7.19;69.67
68301;BME280;55146;47.468;18.806;2023-02-16T09:45:44;101284.63;;;7.49;69.52
68301;BME280;55146;47.468;18.806;2023-02-16T09:48:27;101286.34;;;7.68;69.02
68301;BME280;55146;47.468;18.806;2023-02-16T09:50:57;101276.25;;;7.87;69.08
68301;BME280;55146;47.468;18.806;2023-02-16T09:53:35;101273.66;;;8.10;68.23
68301;BME280;55146;47.468;18.806;2023-02-16T09:56:25;101274.63;;;8.34;67.36
68301;BME280;55146;47.468;18.806;2023-02-16T09:59:13;101272.56;;;8.48;66.84
68301;BME280;55146;47.468;18.806;2023-02-16T10:02:23;101279.81;;;8.72;65.98
68301;BME280;55146;47.468;18.806;2023-02-16T10:10:18;101276.47;;;9.12;65.88
68301;BME280;55146;47.468;18.806;2023-02-16T10:13:00;101270.78;;;9.25;64.78
68301;BME280;55146;47.468;18.806;2023-02-16T10:15:30;101265.03;;;9.38;63.91
68301;BME280;55146;47.468;18.806;2023-02-16T10:18:00;101269.47;;;9.51;63.70
68301;BME280;55146;47.468;18.806;2023-02-16T10:20:32;101255.59;;;9.57;64.15
68301;BME280;55146;47.468;18.806;2023-02-16T10:31:01;101261.03;;;10.15;63.28
68301;BME280;55146;47.468;18.806;2023-02-16T10:36:02;101252.03;;;10.32;63.17
68301;BME280;55146;47.468;18.806;2023-02-16T10:41:31;101250.81;;;10.39;62.35
68301;BME280;55146;47.468;18.806;2023-02-16T10:44:12;101240.47;;;10.30;62.39
68301;BME280;55146;47.468;18.806;2023-02-16T10:46:44;101235.81;;;10.30;63.29
68301;BME280;55146;47.468;18.806;2023-02-16T10:49:13;101232.50;;;10.45;62.48
68301;BME280;55146;47.468;18.806;2023-02-16T10:51:40;101225.31;;;10.44;61.32
68301;BME280;55146;47.468;18.806;2023-02-16T10:54:18;101221.41;;;10.40;62.47
68301;BME280;55146;47.468;18.806;2023-02-16T10:56:48;101214.69;;;10.47;62.18
68301;BME280;55146;47.468;18.806;2023-02-16T10:59:36;101228.62;;;10.58;62.12
68301;BME280;55146;47.468;18.806;2023-02-16T11:02:13;101213.63;;;10.65;61.41
68301;BME280;55146;47.468;18.806;2023-02-16T11:04:43;101218.59;;;10.80;61.00
68301;BME280;55146;47.468;18.806;2023-02-16T11:07:15;101213.56;;;10.77;62.19
68301;BME280;55146;47.468;18.806;2023-02-16T11:09:44;101209.09;;;11.04;61.36
68301;BME280;55146;47.468;18.806;2023-02-16T11:12:39;101214.84;;;11.19;60.25
68301;BME280;55146;47.468;18.806;2023-02-16T11:20:55;101202.53;;;11.44;59.08
68301;BME280;55146;47.468;18.806;2023-02-16T11:23:27;101193.59;;;11.53;58.28
68301;BME280;55146;47.468;18.806;2023-02-16T11:28:31;101189.66;;;11.66;56.79
68301;BME280;55146;47.468;18.806;2023-02-16T11:33:27;101176.94;;;11.65;57.79
68301;BME280;55146;47.468;18.806;2023-02-16T11:35:54;101169.25;;;11.84;57.03
68301;BME280;55146;47.468;18.806;2023-02-16T11:38:33;101168.72;;;12.08;56.74
68301;BME280;55146;47.468;18.806;2023-02-16T11:41:02;101171.59;;;12.19;56.93
68301;BME280;55146;47.468;18.806;2023-02-16T11:43:31;101166.91;;;12.19;56.09
68301;BME280;55146;47.468;18.806;2023-02-16T11:46:00;101173.56;;;12.23;55.50
68301;BME280;55146;47.468;18.806;2023-02-16T11:48:30;101164.19;;;12.24;56.16
68301;BME280;55146;47.468;18.806;2023-02-16T11:51:05;101159.22;;;12.21;54.30
68301;BME280;55146;47.468;18.806;2023-02-16T11:53:33;101159.72;;;12.18;54.45
68301;BME280;55146;47.468;18.806;2023-02-16T11:56:21;101149.59;;;12.02;56.02
68301;BME280;55146;47.468;18.806;2023-02-16T11:59:17;101151.50;;;12.23;56.80
68301;BME280;55146;47.468;18.806;2023-02-16T12:08:07;101145.00;;;12.34;54.74
68301;BME280;55146;47.468;18.806;2023-02-16T12:16:34;101126.38;;;12.46;54.53
68301;BME280;55146;47.468;18.806;2023-02-16T12:19:23;101124.72;;;12.50;55.28
68301;BME280;55146;47.468;18.806;2023-02-16T12:33:25;101109.72;;;12.41;54.00
68301;BME280;55146;47.468;18.806;2023-02-16T12:44:07;101094.97;;;12.26;54.75
68301;BME280;55146;47.468;18.806;2023-02-16T12:46:41;101096.59;;;12.22;55.09
68301;BME280;55146;47.468;18.806;2023-02-16T12:49:15;101093.12;;;12.36;55.15
68301;BME280;55146;47.468;18.806;2023-02-16T12:51:51;101083.75;;;12.37;54.57
68301;BME280;55146;47.468;18.806;2023-02-16T12:54:29;101081.84;;;12.38;54.61
68301;BME280;55146;47.468;18.806;2023-02-16T12:57:02;101074.88;;;12.30;53.52
68301;BME280;55146;47.468;18.806;2023-02-16T12:59:42;101078.34;;;12.15;54.68
68301;BME280;55146;47.468;18.806;2023-02-16T13:02:15;101064.37;;;12.00;55.63
68301;BME280;55146;47.468;18.806;2023-02-16T13:04:48;101061.38;;;12.02;55.23
68301;BME280;55146;47.468;18.806;2023-02-16T13:07:29;101055.13;;;11.85;55.78
68301;BME280;55146;47.468;18.806;2023-02-16T13:12:30;101044.13;;;11.68;56.16
68301;BME280;55146;47.468;18.806;2023-02-16T13:18:01;101050.78;;;11.94;57.05
68301;BME280;55146;47.468;18.806;2023-02-16T13:20:27;101037.03;;;11.72;56.60
68301;BME280;55146;47.468;18.806;2023-02-16T13:31:12;101028.62;;;11.62;57.81
68301;BME280;55146;47.468;18.806;2023-02-16T13:37:06;101021.53;;;11.44;58.62
68301;BME280;55146;47.468;18.806;2023-02-16T13:42:57;101016.28;;;11.21;59.71
68301;BME280;55146;47.468;18.806;2023-02-16T13:45:29;101015.53;;;11.25;60.08
68301;BME280;55146;47.468;18.806;2023-02-16T13:47:56;101024.03;;;11.24;60.58
68301;BME280;55146;47.468;18.806;2023-02-16T13:52:50;101017.97;;;11.22;60.38
68301;BME280;55146;47.468;18.806;2023-02-16T13:55:31;101007.31;;;11.30;60.04
68301;BME280;55146;47.468;18.806;2023-02-16T13:58:27;101014.88;;;11.40;59.57
68301;BME280;55146;47.468;18.806;2023-02-16T14:00:53;101014.62;;;11.42;58.27
68301;BME280;55146;47.468;18.806;2023-02-16T14:05:54;101012.97;;;11.41;58.51
68301;BME280;55146;47.468;18.806;2023-02-16T14:08:39;101006.56;;;11.35;58.59
68301;BME280;55146;47.468;18.806;2023-02-16T14:11:07;101004.84;;;11.29;58.44
68301;BME280;55146;47.468;18.806;2023-02-16T14:21:14;101008.41;;;11.08;58.68
68301;BME280;55146;47.468;18.806;2023-02-16T14:23:41;101005.84;;;11.01;59.01
68301;BME280;55146;47.468;18.806;2023-02-16T14:26:08;101012.19;;;11.02;59.23
68301;BME280;55146;47.468;18.806;2023-02-16T14:29:09;101008.97;;;10.88;59.59
68301;BME280;55146;47.468;18.806;2023-02-16T14:31:46;101000.03;;;10.81;59.83
68301;BME280;55146;47.468;18.806;2023-02-16T14:34:18;101004.41;;;10.77;60.14
68301;BME280;55146;47.468;18.806;2023-02-16T14:37:08;101001.59;;;10.72;60.51
68301;BME280;55146;47.468;18.806;2023-02-16T14:39:37;101004.00;;;10.68;60.68
68301;BME280;55146;47.468;18.806;2023-02-16T14:42:15;100998.66;;;10.62;60.30
68301;BME280;55146;47.468;18.806;2023-02-16T14:50:43;100996.53;;;10.47;61.38
68301;BME280;55146;47.468;18.806;2023-02-16T14:53:06;100998.94;;;10.43;61.65
68301;BME280;55146;47.468;18.806;2023-02-16T14:56:02;100985.38;;;10.37;61.99
68301;BME280;55146;47.468;18.806;2023-02-16T14:58:50;100994.22;;;10.22;62.20
68301;BME280;55146;47.468;18.806;2023-02-16T15:01:19;100997.50;;;10.07;62.91
68301;BME280;55146;47.468;18.806;2023-02-16T15:03:53;101000.31;;;9.96;63.52
68301;BME280;55146;47.468;18.806;2023-02-16T15:08:57;101000.31;;;9.79;63.37
68301;BME280;55146;47.468;18.806;2023-02-16T15:11:33;100997.19;;;9.75;63.75
68301;BME280;55146;47.468;18.806;2023-02-16T15:14:05;100994.19;;;9.60;63.50
68301;BME280;55146;47.468;18.806;2023-02-16T15:16:32;100987.19;;;9.69;63.34
68301;BME280;55146;47.468;18.806;2023-02-16T15:19:04;100991.44;;;9.60;63.43